createdAt,value
2022-08-10T00:00:39.611Z,102845.94
2022-08-10T00:05:43.734Z,102842.41
2022-08-10T00:10:56.957Z,102846.88
2022-08-10T00:15:58.566Z,102837.41
2022-08-10T00:21:00.141Z,102850.53
2022-08-10T00:26:02.385Z,102848.84
2022-08-10T00:31:03.960Z,102842.78
2022-08-10T00:36:05.866Z,102842.78
2022-08-10T00:41:07.448Z,102831.44
2022-08-10T00:46:09.193Z,102835.00
2022-08-10T00:51:11.175Z,102834.19
2022-08-10T00:57:14.983Z,102838.56
2022-08-10T01:02:10.799Z,102833.50
2022-08-10T01:07:20.416Z,102832.69
2022-08-10T01:12:52.459Z,102836.19
2022-08-10T01:18:33.678Z,102839.72
2022-08-10T01:24:08.831Z,102841.53
2022-08-10T01:29:27.640Z,102839.00
2022-08-10T01:34:37.507Z,102844.34
2022-08-10T01:39:47.040Z,102835.59
2022-08-10T01:45:02.205Z,102840.84
2022-08-10T01:50:13.583Z,102843.53
2022-08-10T01:55:16.924Z,102843.53
2022-08-10T02:00:19.635Z,102838.28
2022-08-10T02:05:29.498Z,102836.56
2022-08-10T02:10:33.317Z,102842.72
2022-08-10T02:15:37.122Z,102840.09
2022-08-10T02:20:44.265Z,102849.75
2022-08-10T02:25:46.836Z,102852.38
2022-08-10T02:30:50.192Z,102856.78
2022-08-10T02:35:55.306Z,102853.38
2022-08-10T02:45:03.660Z,102862.13
2022-08-10T02:46:40.036Z,102858.63
2022-08-10T02:52:07.614Z,102861.28
2022-08-10T02:57:27.171Z,102868.28
2022-08-10T03:02:40.811Z,102861.34
2022-08-10T03:07:51.083Z,102856.97
2022-08-10T03:12:57.928Z,102843.03
2022-08-10T03:18:00.775Z,102856.13
2022-08-10T03:23:05.642Z,102860.53
2022-08-10T03:28:08.245Z,102864.03
2022-08-10T03:33:11.545Z,102862.25
2022-08-10T03:38:13.300Z,102849.22
2022-08-10T03:43:21.459Z,102866.69
2022-08-10T03:48:32.077Z,102864.94
2022-08-10T03:54:06.192Z,102861.44
2022-08-10T03:59:11.466Z,102859.69
2022-08-10T04:04:15.460Z,102857.97
2022-08-10T04:09:19.769Z,102871.06
2022-08-10T04:14:38.786Z,102864.06
2022-08-10T04:19:49.124Z,102864.94
2022-08-10T04:24:57.084Z,102855.34
2022-08-10T04:29:58.765Z,102869.28
2022-08-10T04:35:03.995Z,102863.19
2022-08-10T04:40:06.217Z,102871.00
2022-08-10T04:45:49.283Z,102869.25
2022-08-10T04:50:49.472Z,102875.34
2022-08-10T04:55:51.018Z,102876.16
2022-08-10T05:00:52.640Z,102866.53
2022-08-10T05:05:54.467Z,102859.50
2022-08-10T05:10:58.549Z,102870.78
2022-08-10T05:16:00.416Z,102868.97
2022-08-10T05:21:01.979Z,102873.31
2022-08-10T05:26:03.741Z,102869.50
2022-08-10T05:31:05.515Z,102863.16
2022-08-10T05:36:08.543Z,102876.50
2022-08-10T05:41:10.174Z,102866.47
2022-08-10T05:46:17.955Z,102866.44
2022-08-10T05:51:23.279Z,102867.63
2022-08-10T05:56:25.022Z,102870.94
2022-08-10T06:01:28.431Z,102858.22
2022-08-10T06:06:34.262Z,102859.91
2022-08-10T06:12:23.819Z,102844.91
2022-08-10T06:17:01.107Z,102849.56
2022-08-10T06:22:03.358Z,102860.69
2022-08-10T06:27:05.193Z,102862.66
2022-08-10T06:32:09.787Z,102864.16
2022-08-10T06:37:15.615Z,102855.31
2022-08-10T06:42:32.410Z,102852.13
2022-08-10T06:47:59.610Z,102848.75
2022-08-10T06:53:02.880Z,102832.41
2022-08-10T06:58:05.940Z,102857.03
2022-08-10T07:03:11.409Z,102862.81
2022-08-10T07:08:14.465Z,102854.06
2022-08-10T07:14:15.361Z,102859.91
2022-08-10T07:18:41.426Z,102855.69
2022-08-10T07:23:59.770Z,102867.69
2022-08-10T07:29:04.925Z,102868.97
2022-08-10T07:34:12.922Z,102875.28
2022-08-10T07:40:02.304Z,102865.75
2022-08-10T07:44:54.835Z,102879.63
2022-08-10T07:50:02.734Z,102878.44
2022-08-10T07:55:07.981Z,102880.53
2022-08-10T08:00:11.805Z,102882.66
2022-08-10T08:05:29.886Z,102892.56
2022-08-10T08:10:38.085Z,102887.03
2022-08-10T08:16:17.498Z,102887.31
2022-08-10T08:24:01.803Z,102890.63
2022-08-10T08:26:29.469Z,102888.44
2022-08-10T08:31:32.671Z,102880.00
2022-08-10T08:36:39.312Z,102865.44
2022-08-10T08:42:23.159Z,102863.94
2022-08-10T08:48:05.689Z,102863.94
2022-08-10T08:54:02.781Z,102881.84
2022-08-10T08:59:06.639Z,102867.34
2022-08-10T09:04:19.909Z,102857.53
2022-08-10T09:09:44.342Z,102849.59
2022-08-10T09:14:51.889Z,102843.53
2022-08-10T09:20:28.841Z,102845.00
2022-08-10T09:25:45.105Z,102828.66
2022-08-10T09:31:21.069Z,102821.66
2022-08-10T09:36:38.056Z,102835.63
2022-08-10T09:42:02.664Z,102827.69
2022-08-10T09:47:12.068Z,102820.56
2022-08-10T09:52:59.221Z,102816.53
2022-08-10T09:58:01.451Z,102807.28
2022-08-10T10:03:06.440Z,102813.06
2022-08-10T10:08:13.800Z,102810.09
2022-08-10T10:13:41.662Z,102810.75
2022-08-10T10:19:10.187Z,102800.81
2022-08-10T10:24:39.385Z,102805.00
2022-08-10T10:29:58.686Z,102795.47
2022-08-10T10:35:23.562Z,102792.53
2022-08-10T10:40:32.605Z,102787.78
2022-08-10T10:45:51.307Z,102779.91
2022-08-10T10:51:16.369Z,102767.41
2022-08-10T10:56:36.286Z,102769.56
2022-08-10T11:02:02.688Z,102763.22
2022-08-10T11:07:21.930Z,102763.72
2022-08-10T11:12:50.924Z,102762.34
2022-08-10T11:17:59.187Z,102756.81
2022-08-10T11:23:28.071Z,102745.28
2022-08-10T11:28:50.447Z,102753.25
2022-08-10T11:34:11.226Z,102746.31
2022-08-10T11:39:25.003Z,102739.13
2022-08-10T11:44:27.041Z,102744.13
2022-08-10T11:49:59.824Z,102735.66
2022-08-10T11:55:12.334Z,102727.97
2022-08-10T12:00:15.071Z,102724.63
2022-08-10T12:05:54.542Z,102731.09
2022-08-10T12:10:58.124Z,102718.75
2022-08-10T12:16:07.858Z,102712.75
2022-08-10T12:21:21.761Z,102708.34
2022-08-10T12:26:33.253Z,102707.53
2022-08-10T12:32:11.958Z,102706.78
2022-08-10T12:37:31.671Z,102709.91
2022-08-10T12:43:02.570Z,102694.97
2022-08-10T12:48:31.111Z,102686.13
2022-08-10T12:53:38.971Z,102686.72
2022-08-10T12:58:57.694Z,102667.91
2022-08-10T13:04:23.064Z,102674.16
2022-08-10T13:09:26.797Z,102675.44
2022-08-10T13:14:32.972Z,102678.31
2022-08-10T13:19:55.304Z,102669.47
2022-08-10T13:25:03.301Z,102667.75
2022-08-10T13:30:07.117Z,102659.78
2022-08-10T13:35:17.516Z,102661.34
2022-08-10T13:40:21.158Z,102661.19
2022-08-10T13:45:25.925Z,102654.25
2022-08-10T13:50:33.449Z,102649.41
2022-08-10T13:55:46.056Z,102643.84
2022-08-10T14:00:59.935Z,102638.00
2022-08-10T14:06:04.390Z,102635.13
2022-08-10T14:11:14.817Z,102629.88
2022-08-10T14:16:18.540Z,102623.00
2022-08-10T14:21:21.036Z,102612.38
2022-08-10T14:26:31.218Z,102604.59
2022-08-10T14:31:36.316Z,102602.53
2022-08-10T14:37:02.000Z,102602.56
2022-08-10T14:42:20.240Z,102600.56
2022-08-10T14:48:01.963Z,102600.53
2022-08-10T14:52:52.974Z,102585.25
2022-08-10T14:58:19.895Z,102583.41
2022-08-10T15:04:01.711Z,102578.88
2022-08-10T15:08:42.532Z,102585.34
2022-08-10T15:14:34.018Z,102579.03
2022-08-10T15:20:01.697Z,102578.28
2022-08-10T15:24:56.875Z,102578.91
2022-08-10T15:29:59.716Z,102568.66
2022-08-10T15:35:25.482Z,102566.09
2022-08-10T15:40:37.344Z,102576.53
2022-08-10T15:45:55.761Z,102569.22
2022-08-10T15:51:05.976Z,102564.91
2022-08-10T15:56:29.183Z,102568.94
2022-08-10T16:02:12.814Z,102549.84
2022-08-10T16:07:16.464Z,102548.94
2022-08-10T16:12:32.433Z,102551.66
2022-08-10T16:17:54.950Z,102547.84
2022-08-10T16:23:00.666Z,102555.16
2022-08-10T16:28:08.289Z,102554.56
2022-08-10T16:33:15.656Z,102546.63
2022-08-10T16:38:22.071Z,102544.56
2022-08-10T16:43:24.612Z,102541.09
2022-08-10T16:48:50.001Z,102533.13
2022-08-10T16:53:54.040Z,102530.38
2022-08-10T16:58:57.405Z,102517.22
2022-08-10T17:04:09.658Z,102513.59
2022-08-10T17:09:18.334Z,102514.34
2022-08-10T17:14:25.138Z,102512.41
2022-08-10T17:19:28.481Z,102516.31
2022-08-10T17:24:32.905Z,102513.06
2022-08-10T17:29:57.586Z,102509.97
2022-08-10T17:35:03.647Z,102513.66
2022-08-10T17:40:09.805Z,102502.16
2022-08-10T17:45:48.284Z,102504.56
2022-08-10T17:50:51.207Z,102503.81
2022-08-10T17:55:57.663Z,102502.50
2022-08-10T18:01:38.481Z,102497.59
2022-08-10T18:06:25.544Z,102505.72
2022-08-10T18:11:34.055Z,102511.47
2022-08-10T18:16:41.576Z,102507.78
2022-08-10T18:21:47.430Z,102511.97
2022-08-10T18:26:55.373Z,102508.00
2022-08-10T18:31:59.913Z,102506.19
2022-08-10T18:37:05.216Z,102514.84
2022-08-10T18:42:12.341Z,102516.34
2022-08-10T18:47:19.800Z,102524.59
2022-08-10T18:52:25.046Z,102523.94
2022-08-10T18:57:54.173Z,102533.00
2022-08-10T19:03:17.138Z,102545.72
2022-08-10T19:08:37.028Z,102541.63
2022-08-10T19:14:16.196Z,102546.28
2022-08-10T19:19:42.228Z,102544.81
2022-08-10T19:26:40.792Z,102542.56
2022-08-10T19:31:12.211Z,102541.03
2022-08-10T19:36:35.615Z,102542.81
2022-08-10T19:41:44.962Z,102542.75
2022-08-10T19:47:06.963Z,102543.31
2022-08-10T19:52:46.545Z,102542.16
2022-08-10T19:58:04.747Z,102547.28
2022-08-10T20:03:10.746Z,102547.75
2022-08-10T20:08:20.878Z,102550.00
2022-08-10T20:13:37.259Z,102548.88
2022-08-10T20:18:47.673Z,102546.63
2022-08-10T20:23:53.918Z,102552.31
2022-08-10T20:29:16.494Z,102548.31
2022-08-10T20:34:50.065Z,102544.38
2022-08-10T20:39:59.180Z,102557.09
2022-08-10T20:45:25.505Z,102551.31
2022-08-10T20:50:55.997Z,102543.84
2022-08-10T20:55:57.569Z,102551.34
2022-08-10T21:01:19.190Z,102552.69
2022-08-10T21:06:42.682Z,102539.97
2022-08-10T21:12:16.704Z,102547.38
2022-08-10T21:17:27.702Z,102560.25
2022-08-10T21:22:44.990Z,102552.72
2022-08-10T21:28:04.648Z,102550.44
2022-08-10T21:33:16.687Z,102551.72
2022-08-10T21:38:33.667Z,102544.19
2022-08-10T21:44:25.291Z,102543.78
2022-08-10T21:50:07.480Z,102536.25
2022-08-10T21:55:56.011Z,102531.38
2022-08-10T22:01:31.862Z,102535.84
2022-08-10T22:07:01.263Z,102525.72
2022-08-10T22:12:32.158Z,102538.13
2022-08-10T22:18:00.990Z,102540.16
2022-08-10T22:24:16.837Z,102538.59
2022-08-10T22:29:50.757Z,102533.72
2022-08-10T22:35:29.281Z,102527.75
2022-08-10T22:40:49.730Z,102528.06
2022-08-10T22:46:15.955Z,102515.09
2022-08-10T22:51:22.931Z,102517.16
2022-08-10T22:56:43.239Z,102513.69
2022-08-10T23:02:08.441Z,102519.94
2022-08-10T23:07:19.099Z,102506.22
2022-08-10T23:12:25.396Z,102510.03
2022-08-10T23:18:00.567Z,102507.94
2022-08-10T23:23:09.692Z,102520.28
2022-08-10T23:28:13.413Z,102520.41
2022-08-10T23:33:37.732Z,102496.31
2022-08-10T23:38:41.985Z,102520.09
2022-08-10T23:44:03.301Z,102513.28
2022-08-10T23:49:07.709Z,102531.84
2022-08-10T23:54:15.080Z,102525.97
2022-08-10T23:59:20.883Z,102527.88
